Hillsboro, New Hampshire
Current Conditions -  °F | °C
As of 6:51 AM on Monday 20 Oct 2014 (Local Time) from KCON Reporting Station
Clear Clear  
Wind Chill: 32°   Ceiling: Unl
Heat Index: 36°   Visibility: 10mi
Dew Point: 24°   Wind: 5mph
Humidity: 62%   Direction: 280°W
Pressure: 29.99"   Gusts: NA
Location:  43.12°N, 71.9°W
Report Text: KCON 201051Z AUTO 28004KT 10SM CLR 02/M04 A2999 RMK AO2 SLP159 T00221044
Loading
Personal Weather Stations






























Interactive Weather Map New forecast layout! Learn more

10-Day Weather Forecast

Advertisements
Track Severe Weather on mobile